createdAt,value
2022-11-29T00:01:00.989Z,36.67
2022-11-29T00:03:28.843Z,36.65
2022-11-29T00:05:56.139Z,36.00
2022-11-29T00:08:24.649Z,33.95
2022-11-29T00:10:52.051Z,36.75
2022-11-29T00:13:19.254Z,39.47
2022-11-29T00:15:46.465Z,36.42
2022-11-29T00:18:13.696Z,34.53
2022-11-29T00:20:40.922Z,32.20
2022-11-29T00:23:08.158Z,35.17
2022-11-29T00:25:38.168Z,37.40
2022-11-29T00:28:05.353Z,37.83
2022-11-29T00:30:32.632Z,35.10
2022-11-29T00:33:00.034Z,34.85
2022-11-29T00:35:27.239Z,35.75
2022-11-29T00:37:54.413Z,35.10
2022-11-29T00:40:21.609Z,36.65
2022-11-29T00:42:50.110Z,35.22
2022-11-29T00:45:17.541Z,38.53
2022-11-29T00:47:44.761Z,33.15
2022-11-29T00:50:12.258Z,34.43
2022-11-29T00:52:39.433Z,36.75
2022-11-29T00:55:07.693Z,40.15
2022-11-29T00:57:34.865Z,36.28
2022-11-29T01:00:05.042Z,36.47
2022-11-29T01:02:32.272Z,36.57
2022-11-29T01:04:59.500Z,36.33
2022-11-29T01:07:26.797Z,35.63
2022-11-29T01:09:54.027Z,37.17
2022-11-29T01:12:21.210Z,34.53
2022-11-29T01:14:48.413Z,38.53
2022-11-29T01:17:16.939Z,39.22
2022-11-29T01:19:49.326Z,35.58
2022-11-29T01:22:18.526Z,37.95
2022-11-29T01:24:45.974Z,37.22
2022-11-29T01:27:13.326Z,38.03
2022-11-29T01:29:40.569Z,36.67
2022-11-29T01:32:07.763Z,36.45
2022-11-29T01:34:37.436Z,36.13
2022-11-29T01:37:04.638Z,40.78
2022-11-29T01:39:31.816Z,36.70
2022-11-29T01:42:00.630Z,33.67
2022-11-29T01:45:00.350Z,36.65
2022-11-29T01:47:27.883Z,34.25
2022-11-29T01:49:56.522Z,34.22
2022-11-29T01:52:28.066Z,35.20
2022-11-29T01:54:58.180Z,37.70
2022-11-29T01:57:25.943Z,38.60
2022-11-29T02:00:02.239Z,28.10
2022-11-29T02:02:43.498Z,36.03
2022-11-29T02:05:13.181Z,38.43
2022-11-29T02:07:41.580Z,36.55
2022-11-29T02:10:09.705Z,37.95
2022-11-29T02:12:45.848Z,34.95
2022-11-29T02:15:24.107Z,38.83
2022-11-29T02:18:04.212Z,39.23
2022-11-29T02:21:00.479Z,38.67
2022-11-29T02:23:47.710Z,34.42
2022-11-29T02:26:26.482Z,36.22
2022-11-29T02:29:21.546Z,35.38
2022-11-29T02:32:09.269Z,40.57
2022-11-29T02:34:53.206Z,38.85
2022-11-29T02:37:39.995Z,34.88
2022-11-29T02:40:20.726Z,35.70
2022-11-29T02:43:09.607Z,36.33
2022-11-29T02:45:48.960Z,38.07
2022-11-29T02:48:43.385Z,30.67
2022-11-29T02:51:20.751Z,37.92
2022-11-29T02:53:55.328Z,37.45
2022-11-29T02:56:27.164Z,36.97
2022-11-29T02:59:01.391Z,39.33
2022-11-29T03:01:34.890Z,39.90
2022-11-29T03:04:10.945Z,42.20
2022-11-29T03:06:46.521Z,42.85
2022-11-29T03:09:20.982Z,37.70
2022-11-29T03:11:55.643Z,37.73
2022-11-29T03:14:25.913Z,39.30
2022-11-29T03:17:00.798Z,39.90
2022-11-29T03:19:40.106Z,38.25
2022-11-29T03:22:15.043Z,40.42
2022-11-29T03:24:49.594Z,41.47
2022-11-29T03:27:24.410Z,41.22
2022-11-29T03:29:56.591Z,38.08
2022-11-29T05:55:58.412Z,39.55
2022-11-29T05:58:32.431Z,37.45
2022-11-29T06:01:06.940Z,43.53
2022-11-29T06:03:39.751Z,37.47
2022-11-29T06:06:14.388Z,35.53
2022-11-29T06:08:48.573Z,36.33
2022-11-29T06:11:23.305Z,41.70
2022-11-29T06:14:02.134Z,34.92
2022-11-29T06:16:49.745Z,35.33
2022-11-29T06:19:45.342Z,37.85
2022-11-29T06:22:29.810Z,40.72
2022-11-29T06:25:12.590Z,38.50
2022-11-29T06:27:57.426Z,35.30
2022-11-29T06:30:30.060Z,42.13
2022-11-29T06:33:08.349Z,41.47
2022-11-29T06:35:40.759Z,37.88
2022-11-29T06:38:16.109Z,37.72
2022-11-29T06:40:43.850Z,41.58
2022-11-29T06:43:13.379Z,36.40
2022-11-29T06:45:45.948Z,39.05
2022-11-29T06:48:19.458Z,37.40
2022-11-29T06:50:56.321Z,43.05
2022-11-29T06:53:34.410Z,36.67
2022-11-29T06:56:08.713Z,42.63
2022-11-29T06:58:46.097Z,38.00
2022-11-29T07:01:24.130Z,39.72
2022-11-29T07:04:07.309Z,35.38
2022-11-29T07:06:35.614Z,37.78
2022-11-29T07:09:10.990Z,39.00
2022-11-29T07:11:39.191Z,36.67
2022-11-29T07:14:09.741Z,40.45
2022-11-29T07:16:44.522Z,38.92
2022-11-29T07:19:18.747Z,34.85
2022-11-29T07:21:59.009Z,35.83
2022-11-29T07:24:39.069Z,39.10
2022-11-29T07:27:15.979Z,40.58
2022-11-29T07:29:58.858Z,39.08
2022-11-29T07:32:35.839Z,41.05
2022-11-29T07:35:10.061Z,39.87
2022-11-29T07:37:48.064Z,40.03
2022-11-29T07:40:19.474Z,40.33
2022-11-29T07:42:59.897Z,36.20
2022-11-29T07:45:31.728Z,40.05
2022-11-29T07:47:59.569Z,36.50
2022-11-29T07:50:27.715Z,37.72
2022-11-29T07:52:55.322Z,36.58
2022-11-29T07:55:24.663Z,34.53
2022-11-29T07:57:52.633Z,40.33
2022-11-29T08:00:20.522Z,38.20
2022-11-29T08:02:50.408Z,36.13
2022-11-29T08:05:17.812Z,38.72
2022-11-29T08:07:46.340Z,35.63
2022-11-29T08:10:16.110Z,37.67
2022-11-29T08:12:44.224Z,42.27
2022-11-29T08:15:11.933Z,34.88
2022-11-29T08:17:39.554Z,35.92
2022-11-29T08:20:09.939Z,36.05
2022-11-29T08:22:37.144Z,36.72
2022-11-29T08:25:05.433Z,36.90
2022-11-29T08:27:33.193Z,40.60
2022-11-29T08:30:00.369Z,36.80
2022-11-29T08:32:27.852Z,39.80
2022-11-29T08:34:55.063Z,40.78
2022-11-29T08:37:23.587Z,37.60
2022-11-29T08:39:50.787Z,39.33
2022-11-29T08:42:18.033Z,39.65
2022-11-29T08:44:45.965Z,38.53
2022-11-29T08:47:32.212Z,38.30
2022-11-29T08:50:02.331Z,36.33
2022-11-29T08:52:50.685Z,36.78
2022-11-29T08:55:19.920Z,40.92
2022-11-29T08:57:47.553Z,40.40
2022-11-29T09:00:15.927Z,39.85
2022-11-29T09:02:43.341Z,36.67
2022-11-29T09:05:11.634Z,36.33
2022-11-29T09:07:40.579Z,40.53
2022-11-29T09:10:09.301Z,32.17
2022-11-29T09:12:37.819Z,35.53
2022-11-29T09:15:07.392Z,40.33
2022-11-29T09:17:34.700Z,42.83
2022-11-29T09:20:02.164Z,37.60
2022-11-29T09:22:29.399Z,34.38
2022-11-29T09:24:57.897Z,41.05
2022-11-29T09:27:25.097Z,37.53
2022-11-29T09:29:52.271Z,36.33
2022-11-29T09:32:19.436Z,38.70
2022-11-29T09:34:46.921Z,37.35
2022-11-29T09:37:14.351Z,36.28
2022-11-29T09:39:41.829Z,37.30
2022-11-29T09:42:23.912Z,38.53
2022-11-29T09:45:01.208Z,38.45
2022-11-29T09:47:45.526Z,39.15
2022-11-29T09:50:21.168Z,42.28
2022-11-29T09:52:56.438Z,37.20
2022-11-29T09:55:39.019Z,32.67
2022-11-29T09:58:13.903Z,39.20
2022-11-29T10:00:48.376Z,41.20
2022-11-29T10:03:23.269Z,34.15
2022-11-29T10:05:57.390Z,36.33
2022-11-29T10:08:31.016Z,37.63
2022-11-29T10:11:06.408Z,34.95
2022-11-29T10:13:36.303Z,35.17
2022-11-29T10:16:12.248Z,36.15
2022-11-29T10:18:46.094Z,36.73
2022-11-29T10:21:19.737Z,37.88
2022-11-29T10:23:50.911Z,36.88
2022-11-29T10:26:18.280Z,39.67
2022-11-29T10:28:48.678Z,37.35
2022-11-29T10:31:26.715Z,39.13
2022-11-29T10:33:55.227Z,39.25
2022-11-29T10:36:27.046Z,40.42
2022-11-29T10:38:56.584Z,40.05
2022-11-29T10:41:23.821Z,42.17
2022-11-29T10:43:55.105Z,38.30
2022-11-29T10:46:28.174Z,38.00
2022-11-29T10:48:57.577Z,37.83
2022-11-29T10:51:24.908Z,37.10
2022-11-29T10:53:54.520Z,36.47
2022-11-29T10:56:24.190Z,34.67
2022-11-29T10:58:58.269Z,42.13
2022-11-29T11:01:28.880Z,37.78
2022-11-29T11:03:58.806Z,35.00
2022-11-29T11:06:27.902Z,42.60
2022-11-29T11:08:57.207Z,40.00
2022-11-29T11:11:27.779Z,36.88
2022-11-29T11:14:01.456Z,35.55
2022-11-29T11:16:32.920Z,37.30
2022-11-29T11:19:27.702Z,37.05
2022-11-29T11:21:55.469Z,36.67
2022-11-29T11:24:25.408Z,40.38
2022-11-29T11:26:52.859Z,40.20
2022-11-29T11:29:24.515Z,37.53
2022-11-29T11:31:55.371Z,42.83
2022-11-29T11:34:29.095Z,37.90
2022-11-29T11:37:21.532Z,35.35
2022-11-29T11:39:50.411Z,39.90
2022-11-29T11:42:40.272Z,38.00
2022-11-29T11:45:27.315Z,39.13
2022-11-29T11:47:58.253Z,36.83
2022-11-29T11:50:29.513Z,41.75
2022-11-29T11:52:58.801Z,38.40
2022-11-29T11:55:32.021Z,44.08
2022-11-29T11:58:07.837Z,38.10
2022-11-29T12:01:02.904Z,38.60
2022-11-29T12:03:49.652Z,39.05
2022-11-29T12:06:27.100Z,41.00
2022-11-29T12:08:59.199Z,35.85
2022-11-29T12:11:31.389Z,39.30
2022-11-29T12:14:00.272Z,44.87
2022-11-29T12:16:34.662Z,39.20
2022-11-29T12:19:11.964Z,41.45
2022-11-29T12:21:43.523Z,40.08
2022-11-29T12:24:26.238Z,40.72
2022-11-29T12:26:57.615Z,39.33
2022-11-29T12:29:31.551Z,39.28
2022-11-29T12:32:14.464Z,42.78
2022-11-29T12:34:58.674Z,39.67
2022-11-29T12:37:32.747Z,40.22
2022-11-29T12:40:06.181Z,40.93
2022-11-29T12:42:46.066Z,41.53
2022-11-29T12:45:27.565Z,42.75
2022-11-29T12:48:10.073Z,38.13
2022-11-29T12:50:50.181Z,42.17
2022-11-29T12:53:33.623Z,39.70
2022-11-29T12:56:10.980Z,38.30
2022-11-29T12:58:50.189Z,38.53
2022-11-29T13:01:24.137Z,40.38
2022-11-29T13:03:58.760Z,44.03
2022-11-29T13:06:33.023Z,38.73
2022-11-29T13:09:35.146Z,45.20
2022-11-29T13:12:06.478Z,45.03
2022-11-29T13:14:54.944Z,38.80
2022-11-29T13:17:30.476Z,42.65
2022-11-29T13:20:04.060Z,40.33
2022-11-29T13:22:45.627Z,40.83
2022-11-29T13:25:17.581Z,41.20
2022-11-29T13:27:58.306Z,38.58
2022-11-29T13:30:26.113Z,38.47
2022-11-29T13:32:59.163Z,42.87
2022-11-29T13:35:35.130Z,42.15
2022-11-29T13:38:09.101Z,40.63
2022-11-29T13:40:38.568Z,41.78
2022-11-29T13:43:18.111Z,39.72
2022-11-29T13:45:50.733Z,42.30
2022-11-29T13:48:31.713Z,41.75
2022-11-29T13:51:21.967Z,43.70
2022-11-29T13:53:51.499Z,40.47
2022-11-29T13:56:33.399Z,39.90
2022-11-29T13:59:05.161Z,44.23
2022-11-29T14:01:44.873Z,42.92
2022-11-29T14:04:28.813Z,47.38
2022-11-29T14:07:08.796Z,40.25
2022-11-29T14:09:50.945Z,44.92
2022-11-29T14:12:35.744Z,41.60
2022-11-29T14:15:17.026Z,43.83
2022-11-29T14:17:50.898Z,43.38
2022-11-29T14:20:44.855Z,44.92
2022-11-29T14:23:17.847Z,49.38
2022-11-29T14:26:20.591Z,42.33
2022-11-29T14:28:52.346Z,40.95
2022-11-29T14:31:49.132Z,43.13
2022-11-29T14:34:33.773Z,45.75
2022-11-29T14:37:08.970Z,43.65
2022-11-29T14:39:44.401Z,47.13
2022-11-29T14:42:18.559Z,44.63
2022-11-29T14:44:51.597Z,51.78
2022-11-29T14:47:29.725Z,45.35
2022-11-29T14:49:59.578Z,45.38
2022-11-29T14:52:30.320Z,43.03
2022-11-29T14:55:02.402Z,43.50
2022-11-29T14:57:52.117Z,41.70
2022-11-29T15:00:22.241Z,41.70
2022-11-29T15:02:52.925Z,48.63
2022-11-29T15:05:24.404Z,45.10
2022-11-29T15:07:56.945Z,49.63
2022-11-29T15:10:30.031Z,48.55
2022-11-29T15:12:59.902Z,41.58
2022-11-29T15:15:44.428Z,41.08
2022-11-29T15:18:27.175Z,43.93
2022-11-29T15:21:08.198Z,43.53
2022-11-29T15:23:41.385Z,49.92
2022-11-29T15:26:16.469Z,46.58
2022-11-29T15:28:44.179Z,51.05
2022-11-29T15:31:15.736Z,42.17
2022-11-29T15:33:45.883Z,48.88
2022-11-29T15:36:17.136Z,43.85
2022-11-29T15:38:46.104Z,47.35
2022-11-29T15:41:20.602Z,45.65
2022-11-29T15:43:51.996Z,42.93
2022-11-29T15:46:23.649Z,48.35
2022-11-29T15:48:50.872Z,39.65
2022-11-29T15:51:25.705Z,50.13
2022-11-29T15:54:11.564Z,48.47
2022-11-29T15:56:45.104Z,47.90
2022-11-29T15:59:30.212Z,45.17
2022-11-29T16:02:02.356Z,44.10
2022-11-29T16:04:30.263Z,43.65
2022-11-29T16:06:57.840Z,43.55
2022-11-29T16:09:31.162Z,41.73
2022-11-29T16:11:59.955Z,43.45
2022-11-29T16:14:28.546Z,43.67
2022-11-29T16:17:00.467Z,42.88
2022-11-29T16:19:32.430Z,46.00
2022-11-29T16:22:12.386Z,43.30
2022-11-29T16:24:45.664Z,45.58
2022-11-29T16:27:14.151Z,39.78
2022-11-29T16:29:45.012Z,43.08
2022-11-29T16:32:20.253Z,42.95
2022-11-29T16:34:47.832Z,46.13
2022-11-29T16:37:18.762Z,45.78
2022-11-29T16:39:48.070Z,44.97
2022-11-29T16:42:23.581Z,44.17
2022-11-29T16:45:33.458Z,46.40
2022-11-29T16:48:13.911Z,42.07
2022-11-29T16:50:41.115Z,42.17
2022-11-29T16:53:33.194Z,48.97
2022-11-29T16:56:00.382Z,45.65
2022-11-29T16:58:27.906Z,41.40
2022-11-29T17:00:55.496Z,45.00
2022-11-29T17:03:24.085Z,45.95
2022-11-29T17:05:51.336Z,44.28
2022-11-29T17:08:18.564Z,45.67
2022-11-29T17:10:45.782Z,46.90
2022-11-29T17:13:13.031Z,43.63
2022-11-29T17:15:40.278Z,42.60
2022-11-29T17:18:07.487Z,41.55
2022-11-29T17:20:36.015Z,48.97
2022-11-29T17:23:03.220Z,46.70
2022-11-29T17:25:30.377Z,47.37
2022-11-29T17:27:57.975Z,46.47
2022-11-29T17:30:25.763Z,50.42
2022-11-29T17:32:52.982Z,42.92
2022-11-29T17:35:20.175Z,48.08
2022-11-29T17:37:48.695Z,45.97
2022-11-29T17:40:16.155Z,45.63
2022-11-29T17:42:43.333Z,48.58
2022-11-29T17:45:11.258Z,48.63
2022-11-29T17:47:38.464Z,47.55
2022-11-29T17:50:06.838Z,42.73
2022-11-29T17:52:34.004Z,44.85
2022-11-29T17:55:02.514Z,45.75
2022-11-29T17:57:29.681Z,43.22
2022-11-29T17:59:56.844Z,43.40
2022-11-29T18:02:24.043Z,48.00
2022-11-29T18:04:51.367Z,44.88
2022-11-29T18:07:18.589Z,43.90
2022-11-29T18:09:47.347Z,45.80
2022-11-29T18:12:16.081Z,46.70
2022-11-29T18:14:43.292Z,43.93
2022-11-29T18:17:10.510Z,50.33
2022-11-29T18:19:37.733Z,49.40
2022-11-29T18:22:04.905Z,45.70
2022-11-29T18:24:32.087Z,46.38
2022-11-29T18:26:59.264Z,46.23
2022-11-29T18:29:31.477Z,46.53
2022-11-29T18:32:01.380Z,47.13
2022-11-29T18:34:28.545Z,51.88
2022-11-29T18:36:55.706Z,49.67
2022-11-29T18:39:24.905Z,36.77
2022-11-29T18:41:52.092Z,43.17
2022-11-29T18:44:21.515Z,51.38
2022-11-29T18:46:50.207Z,52.60
2022-11-29T18:49:18.426Z,49.08
2022-11-29T18:51:46.867Z,46.87
2022-11-29T18:54:14.979Z,50.03
2022-11-29T18:56:43.441Z,50.53
2022-11-29T18:59:12.248Z,52.88
2022-11-29T19:01:42.421Z,50.05
2022-11-29T19:04:12.956Z,48.73
2022-11-29T19:06:40.837Z,54.88
2022-11-29T19:09:16.217Z,52.38
2022-11-29T19:11:43.683Z,52.00
2022-11-29T19:14:12.675Z,48.65
2022-11-29T19:16:42.055Z,48.40
2022-11-29T19:19:11.240Z,48.65
2022-11-29T19:21:42.090Z,58.53
2022-11-29T19:24:14.529Z,53.28
2022-11-29T19:26:44.368Z,50.38
2022-11-29T19:29:12.383Z,50.33
2022-11-29T19:31:40.238Z,50.33
2022-11-29T19:34:07.853Z,49.63
2022-11-29T19:36:42.285Z,45.55
2022-11-29T19:39:10.319Z,50.50
2022-11-29T19:41:37.576Z,54.60
2022-11-29T19:44:06.987Z,48.33
2022-11-29T19:46:36.246Z,52.97
2022-11-29T19:49:05.726Z,51.72
2022-11-29T19:51:33.574Z,45.58
2022-11-29T19:54:04.887Z,48.70
2022-11-29T19:56:32.577Z,50.90
2022-11-29T19:58:59.875Z,47.05
2022-11-29T20:01:36.062Z,49.92
2022-11-29T20:04:07.359Z,48.72
2022-11-29T20:06:34.850Z,52.47
2022-11-29T20:09:04.017Z,47.17
2022-11-29T20:11:31.240Z,50.33
2022-11-29T20:13:59.966Z,55.72
2022-11-29T20:16:29.461Z,48.92
2022-11-29T20:18:57.795Z,48.10
2022-11-29T20:21:27.547Z,49.63
2022-11-29T20:23:56.173Z,50.40
2022-11-29T20:26:25.331Z,51.67
2022-11-29T20:28:52.761Z,54.42
2022-11-29T20:31:22.776Z,53.83
2022-11-29T20:33:52.835Z,50.50
2022-11-29T20:36:32.837Z,48.00
2022-11-29T20:39:05.813Z,45.50
2022-11-29T20:41:41.503Z,48.55
2022-11-29T20:44:13.699Z,47.80
2022-11-29T20:46:41.273Z,51.13
2022-11-29T20:49:09.703Z,53.72
2022-11-29T20:51:42.025Z,50.60
2022-11-29T20:54:10.602Z,52.55
2022-11-29T20:56:39.142Z,49.97
2022-11-29T20:59:06.397Z,47.65
2022-11-29T21:01:33.589Z,55.15
2022-11-29T21:04:00.908Z,55.28
2022-11-29T21:06:28.115Z,52.97
2022-11-29T21:08:55.292Z,52.93
2022-11-29T21:11:23.967Z,49.15
2022-11-29T21:13:53.015Z,54.92
2022-11-29T21:16:27.306Z,48.80
2022-11-29T21:18:59.112Z,51.78
2022-11-29T21:21:33.222Z,48.63
2022-11-29T21:24:05.197Z,49.08
2022-11-29T21:26:41.762Z,53.58
2022-11-29T21:29:16.172Z,57.35
2022-11-29T21:31:43.949Z,48.22
2022-11-29T21:34:11.365Z,53.53
2022-11-29T21:36:38.816Z,52.28
2022-11-29T21:39:06.888Z,54.05
2022-11-29T21:41:34.192Z,53.15
2022-11-29T21:44:08.850Z,52.10
2022-11-29T21:46:37.596Z,51.30
2022-11-29T21:49:05.315Z,49.72
2022-11-29T21:51:32.525Z,52.70
2022-11-29T21:54:00.757Z,58.03
2022-11-29T21:56:27.942Z,52.95
2022-11-29T21:58:55.179Z,51.90
2022-11-29T22:01:22.511Z,54.72
2022-11-29T22:03:52.317Z,52.17
2022-11-29T22:06:20.397Z,57.08
2022-11-29T22:08:48.374Z,52.72
2022-11-29T22:11:17.269Z,56.83
2022-11-29T22:14:03.456Z,53.88
2022-11-29T22:16:30.763Z,55.95
2022-11-29T22:18:59.315Z,56.35
2022-11-29T22:21:26.539Z,51.75
2022-11-29T22:23:53.746Z,49.40
2022-11-29T22:26:21.838Z,51.50
2022-11-29T22:28:49.141Z,55.33
2022-11-29T22:31:16.509Z,56.90
2022-11-29T22:33:43.714Z,57.85
2022-11-29T22:36:13.170Z,58.83
2022-11-29T22:38:40.619Z,53.15
2022-11-29T22:41:09.861Z,56.53
2022-11-29T22:43:38.822Z,61.22
2022-11-29T22:46:07.696Z,61.30
2022-11-29T22:48:38.905Z,58.07
2022-11-29T22:51:07.913Z,53.42
2022-11-29T22:53:37.568Z,57.08
2022-11-29T22:56:07.031Z,59.72
2022-11-29T22:58:34.504Z,57.13
2022-11-29T23:01:02.850Z,58.00
2022-11-29T23:03:32.786Z,55.55
2022-11-29T23:06:03.877Z,50.67
2022-11-29T23:08:31.629Z,53.80
2022-11-29T23:11:00.673Z,54.28
2022-11-29T23:13:27.895Z,57.40
2022-11-29T23:15:55.085Z,55.67
2022-11-29T23:18:22.300Z,59.42
2022-11-29T23:20:49.505Z,57.00
2022-11-29T23:23:16.708Z,59.00
2022-11-29T23:25:48.566Z,51.77
2022-11-29T23:28:17.319Z,59.33
2022-11-29T23:30:44.691Z,57.60
2022-11-29T23:33:11.910Z,54.05
2022-11-29T23:35:39.183Z,55.22
2022-11-29T23:38:06.988Z,54.00
2022-11-29T23:40:34.506Z,56.58
2022-11-29T23:43:01.694Z,54.13
2022-11-29T23:45:30.257Z,60.17
2022-11-29T23:47:57.572Z,56.75
2022-11-29T23:50:24.777Z,58.17
2022-11-29T23:52:53.822Z,49.08
2022-11-29T23:55:21.709Z,58.45
2022-11-29T23:57:49.296Z,62.00
